DC11 weather

National Presbyterian Church Heliport
Washington, District of Columbia, United States

Public forecast

Using degrees Fahrenheit for public forecast. Weather courtesy of forecast.io.

Closest aviation weather report (METAR) to National Presbyterian Church Heliport

Closest report is Ronald Reagan Washington National Airport, 5.8 nm (10.7 km) SSE. Retrieved 2020/06/05 02:07 UTC (31 minutes ago):

KDCA 050207Z 17011KT 10SM FEW020 BKN060 BKN080 OVC150 23/21 A2989 RMK AO2 LTG DSNT ALQDS RAE06 TSE06 OCNL LTGIC DSNT S CB DSNT S MOV E P0008 T02330211

Closest aviation forecast (TAF) to National Presbyterian Church Heliport

Closest forecast is Ronald Reagan Washington National Airport, 5.8 nm (10.7 km) SSE. Retrieved 2020-06-05 00:36 UTC (2 hours ago):

TAF KDCA 042335Z 0500/0606 19008KT P6SM VCTS SCT060CB BKN130 TEMPO 0500/0501 VRB50KT 1/2SM +TSRA OVC030CB FM050500 20005KT P6SM VCSH SCT050 BKN100 FM050800 VRB03KT P6SM SCT050 BKN130 FM051600 18008G16KT P6SM SCT050 BKN130 FM052000 18008G16KT P6SM VCTS SCT050CB BKN130 FM060000 VRB03KT P6SM SCT050 BKN130